Time;durP1;ratioP1;P1;durP2;ratioP2;P2;SDS_P1;SDS_P2;PMS_P1;PMS_P2;Temp;Humidity;BMP_temperature;BMP_pressure;BME280_temperature;BME280_humidity;BME280_pressure;Samples;Min_cycle;Max_cycle;Signal;HPM_P1;HPM_P2
2023/02/25 00:01:07;;;;;;;21.50;10.05;;;;;;;10.98;59.79;98062.44;4459009;31;20490;-89
2023/02/25 00:03:34;;;;;;;23.30;11.20;;;;;;;10.97;59.79;98063.38;4469312;31;20210;-89
2023/02/25 00:06:03;;;;;;;24.95;10.57;;;;;;;11.08;59.80;98049.69;4482181;32;20491;-89
2023/02/25 00:08:29;;;;;;;28.33;12.27;;;;;;;11.04;59.79;98043.84;4468855;32;20112;-89
2023/02/25 00:10:58;;;;;;;28.60;12.05;;;;;;;11.16;59.81;98054.44;4460196;32;20114;-89
2023/02/25 00:13:24;;;;;;;25.42;11.30;;;;;;;11.10;59.80;98046.97;4481346;31;20092;-89
2023/02/25 00:15:49;;;;;;;23.50;11.43;;;;;;;10.98;59.79;98039.00;4468712;32;20148;-88
2023/02/25 00:18:14;;;;;;;26.45;10.80;;;;;;;10.99;59.79;98045.03;4483407;31;20386;-88
2023/02/25 00:20:40;;;;;;;28.35;11.40;;;;;;;11.10;59.80;98031.34;4457910;32;20461;-89
2023/02/25 00:23:05;;;;;;;23.25;10.30;;;;;;;11.06;59.79;98031.56;4473499;31;20729;-88
2023/02/25 00:25:31;;;;;;;21.17;10.15;;;;;;;11.12;59.80;98024.28;4476158;32;20100;-89
2023/02/25 00:27:56;;;;;;;20.62;10.43;;;;;;;11.01;59.80;98022.34;4483953;31;20092;-89
2023/02/25 00:30:22;;;;;;;26.55;10.55;;;;;;;11.12;59.80;98019.09;4484377;32;20113;-89
2023/02/25 00:32:48;;;;;;;22.30;10.02;;;;;;;11.15;59.81;98014.53;4481798;31;20136;-88
2023/02/25 00:35:14;;;;;;;18.12;9.65;;;;;;;11.15;59.81;98019.75;4485593;31;20100;-89
2023/02/25 00:37:39;;;;;;;24.67;10.75;;;;;;;11.06;59.79;98018.53;4481484;31;20445;-89
2023/02/25 00:40:13;;;;;;;19.87;10.40;;;;;;;11.12;59.80;97998.25;4483998;32;20077;-89
2023/02/25 00:42:39;;;;;;;27.77;10.07;;;;;;;11.12;59.80;98001.72;4484669;31;20118;-87
2023/02/25 00:45:05;;;;;;;24.30;9.95;;;;;;;11.10;59.80;97995.75;4484926;32;20112;-88
2023/02/25 00:47:30;;;;;;;22.00;9.60;;;;;;;11.18;59.80;97993.53;4472070;31;20117;-89
2023/02/25 00:49:55;;;;;;;19.20;9.38;;;;;;;11.03;59.79;97984.88;4460787;32;20477;-89
2023/02/25 00:52:21;;;;;;;24.42;10.73;;;;;;;11.00;59.80;97990.28;4481369;31;20114;-89
2023/02/25 00:54:46;;;;;;;24.45;10.18;;;;;;;11.10;59.80;97979.28;4466058;31;20114;-89
2023/02/25 00:57:12;;;;;;;22.92;9.60;;;;;;;11.18;59.81;97974.44;4471436;31;20116;-89
2023/02/25 00:59:37;;;;;;;17.10;8.63;;;;;;;11.16;59.81;97969.34;4475513;32;20096;-88
2023/02/25 01:02:03;;;;;;;23.85;9.23;;;;;;;11.16;59.80;97956.31;4460758;31;20152;-88
2023/02/25 01:04:31;;;;;;;20.48;10.77;;;;;;;11.11;59.80;97947.94;4470830;32;20108;-88
2023/02/25 01:06:56;;;;;;;19.35;9.18;;;;;;;11.08;59.80;97951.56;4470791;31;20219;-88
2023/02/25 01:09:22;;;;;;;18.75;9.75;;;;;;;11.10;59.80;97940.22;4470965;32;20111;-87
2023/02/25 01:11:47;;;;;;;19.83;8.73;;;;;;;11.11;59.80;97934.09;4467986;31;20096;-88
2023/02/25 01:14:18;;;;;;;16.35;9.10;;;;;;;11.12;59.80;97931.41;4483949;32;20100;-89
2023/02/25 01:16:44;;;;;;;21.17;9.00;;;;;;;11.18;59.80;97920.59;4471199;32;20101;-90
2023/02/25 01:19:14;;;;;;;22.92;9.13;;;;;;;11.16;59.81;97921.63;4470670;32;20931;-90
2023/02/25 01:21:41;;;;;;;18.67;7.72;;;;;;;11.18;59.80;97920.59;4480921;32;20092;-89
2023/02/25 01:24:11;;;;;;;21.02;8.65;;;;;;;11.17;59.80;97908.50;4457749;32;20483;-89
2023/02/25 01:26:37;;;;;;;22.67;8.07;;;;;;;11.23;59.81;97904.69;4483851;31;20163;-89
2023/02/25 01:29:10;;;;;;;22.80;8.80;;;;;;;11.20;59.80;97897.91;4483425;32;20592;-89
2023/02/25 01:31:36;;;;;;;27.33;9.38;;;;;;;11.23;59.81;97892.50;4471010;32;20080;-89
2023/02/25 01:34:03;;;;;;;21.33;8.07;;;;;;;11.21;59.80;97889.16;4470859;32;20143;-89
2023/02/25 01:36:29;;;;;;;17.02;7.87;;;;;;;11.19;59.80;97898.84;4483636;31;20108;-90
2023/02/25 01:38:55;;;;;;;19.42;8.27;;;;;;;11.15;59.79;97902.56;4483795;32;20179;-90
2023/02/25 01:41:21;;;;;;;21.33;9.77;;;;;;;11.25;59.81;97895.00;4483445;32;20149;-90
2023/02/25 01:44:03;;;;;;;18.37;8.43;;;;;;;11.23;59.81;97891.66;4483844;32;20108;-89
2023/02/25 01:46:28;;;;;;;19.37;7.82;;;;;;;11.22;59.81;97890.81;4473930;31;20176;-89
2023/02/25 01:48:55;;;;;;;20.48;8.70;;;;;;;11.11;59.80;97880.25;4465672;31;20092;-89
2023/02/25 01:51:22;;;;;;;20.55;10.15;;;;;;;11.12;59.80;97879.34;4483809;32;20120;-89
2023/02/25 01:53:47;;;;;;;19.12;8.93;;;;;;;11.22;59.81;97888.22;4470839;31;20421;-90
2023/02/25 01:56:15;;;;;;;16.23;8.93;;;;;;;11.20;59.80;97877.06;4470474;32;20104;-90
2023/02/25 01:58:41;;;;;;;18.17;9.02;;;;;;;11.12;59.80;97884.53;4457823;31;20092;-90
2023/02/25 02:01:09;;;;;;;21.10;8.50;;;;;;;11.15;59.81;97878.31;4477042;31;20149;-89
2023/02/25 02:03:34;;;;;;;21.17;9.38;;;;;;;11.16;59.81;97874.75;4474630;31;20175;-90
2023/02/25 02:06:59;;;;;;;23.40;10.48;;;;;;;11.08;59.80;97872.63;4477580;31;20100;-89
2023/02/25 02:09:26;;;;;;;17.75;8.90;;;;;;;11.02;59.80;97870.41;4436517;31;20163;-91
2023/02/25 02:11:51;;;;;;;16.92;8.90;;;;;;;11.05;59.79;97873.66;4462531;31;20065;-93
2023/02/25 02:14:41;;;;;;;20.02;9.68;;;;;;;10.99;59.79;97860.22;4476847;31;20107;-93
2023/02/25 02:17:31;;;;;;;26.02;9.10;;;;;;;11.01;59.80;97864.38;4496722;31;20814;-92
2023/02/25 02:20:14;;;;;;;21.42;8.38;;;;;;;10.93;59.79;97852.81;4487001;31;20092;-92
2023/02/25 02:23:14;;;;;;;19.87;8.85;;;;;;;10.96;59.79;97848.22;4486365;31;20542;-92
2023/02/25 02:25:51;;;;;;;17.95;8.52;;;;;;;10.95;59.79;97848.31;4481522;32;20076;-92
2023/02/25 02:28:22;;;;;;;20.70;8.18;;;;;;;10.74;59.78;97842.72;4485685;31;20164;-90
2023/02/25 02:31:21;;;;;;;21.00;8.77;;;;;;;10.84;59.79;97827.34;4484173;32;20105;-92
2023/02/25 02:34:06;;;;;;;23.15;9.00;;;;;;;10.87;59.79;97822.75;4466542;32;20107;-91
2023/02/25 02:36:50;;;;;;;17.85;9.20;;;;;;;10.93;59.79;97822.41;4482663;32;20476;-91
2023/02/25 02:39:28;;;;;;;19.62;8.23;;;;;;;10.89;59.79;97820.94;4481101;31;20793;-92
2023/02/25 02:42:23;;;;;;;18.08;8.82;;;;;;;10.88;59.79;97815.78;4471907;32;20127;-93
2023/02/25 02:45:18;;;;;;;18.83;8.18;;;;;;;10.90;59.79;97813.97;4475667;32;20102;-91
2023/02/25 02:47:53;;;;;;;20.48;9.60;;;;;;;10.96;59.80;97818.75;4484537;32;20183;-92
2023/02/25 02:50:29;;;;;;;22.13;10.00;;;;;;;10.88;59.79;97818.41;4465422;32;20161;-91
2023/02/25 02:52:56;;;;;;;21.77;10.20;;;;;;;10.80;59.78;97811.09;4489736;31;20885;-90
2023/02/25 02:55:24;;;;;;;22.95;10.13;;;;;;;10.72;59.77;97811.59;4474940;31;20127;-91
2023/02/25 02:57:51;;;;;;;17.33;8.85;;;;;;;10.73;59.78;97812.41;4470728;32;20105;-90
2023/02/25 03:00:17;;;;;;;21.83;9.45;;;;;;;10.77;59.79;97816.50;4444915;31;20096;-89
2023/02/25 03:02:45;;;;;;;28.30;9.68;;;;;;;10.83;59.78;97817.84;4483553;32;20115;-90
2023/02/25 03:05:13;;;;;;;19.37;9.00;;;;;;;10.75;59.77;97819.19;4480501;31;20580;-89
2023/02/25 03:07:53;;;;;;;17.70;8.35;;;;;;;10.73;59.78;97835.84;4477375;31;20150;-89
2023/02/25 03:10:19;;;;;;;17.83;8.23;;;;;;;10.76;59.79;97833.88;4459053;32;20099;-89
2023/02/25 03:12:44;;;;;;;17.27;8.75;;;;;;;10.80;59.78;97831.06;4470355;32;20144;-90
2023/02/25 03:15:10;;;;;;;24.80;8.02;;;;;;;10.82;59.78;97837.84;4480673;32;20093;-91
2023/02/25 03:17:41;;;;;;;18.70;8.02;;;;;;;10.83;59.78;97836.06;4466576;31;20157;-90
2023/02/25 03:20:13;;;;;;;18.95;9.27;;;;;;;10.78;59.78;97841.59;4470885;32;20453;-89
2023/02/25 03:22:40;;;;;;;25.08;9.63;;;;;;;10.81;59.78;97830.13;4483295;31;20106;-89
2023/02/25 03:25:46;;;;;;;17.85;9.18;;;;;;;10.73;59.77;97836.66;4470410;32;20131;-90
2023/02/25 03:28:42;;;;;;;24.92;8.90;;;;;;;10.74;59.77;97838.34;4483494;31;20104;-90
2023/02/25 03:31:26;;;;;;;20.20;9.05;;;;;;;10.78;59.78;97825.97;4457793;32;20120;-90
2023/02/25 03:33:55;;;;;;;17.08;8.40;;;;;;;10.79;59.78;97834.59;4457867;32;20208;-91
2023/02/25 03:36:33;;;;;;;15.45;8.70;;;;;;;10.69;59.77;97839.56;4469144;32;20080;-91
2023/02/25 03:39:03;;;;;;;22.58;9.27;;;;;;;10.64;59.77;97837.22;4487639;31;20083;-91
2023/02/25 03:41:34;;;;;;;17.77;8.52;;;;;;;10.77;59.79;97832.94;4478424;31;20108;-90
2023/02/25 03:43:59;;;;;;;15.75;8.35;;;;;;;10.75;59.77;97836.56;4465395;31;20114;-89
2023/02/25 03:46:25;;;;;;;21.73;8.15;;;;;;;10.76;59.78;97846.03;4456693;32;20105;-89
2023/02/25 03:48:50;;;;;;;19.08;8.20;;;;;;;10.71;59.77;97833.34;4479772;31;20096;-89
2023/02/25 03:51:18;;;;;;;18.20;8.45;;;;;;;10.92;59.79;97836.34;4470130;32;20100;-88
2023/02/25 03:53:43;;;;;;;20.17;8.52;;;;;;;10.93;59.79;97845.00;4471694;32;20092;-89
2023/02/25 03:56:09;;;;;;;17.33;8.50;;;;;;;11.04;59.79;97843.34;4458358;32;20421;-88
2023/02/25 03:58:35;;;;;;;19.55;8.82;;;;;;;11.00;59.80;97844.50;4471332;31;20502;-89
2023/02/25 04:01:03;;;;;;;14.75;7.78;;;;;;;11.09;59.80;97843.06;4484410;32;20084;-88
2023/02/25 04:03:29;;;;;;;18.27;8.32;;;;;;;11.15;59.81;97834.88;4471688;31;20114;-88
2023/02/25 04:05:54;;;;;;;24.95;8.68;;;;;;;11.07;59.80;97832.75;4471432;32;20096;-88
2023/02/25 04:08:20;;;;;;;18.15;8.48;;;;;;;11.02;59.80;97831.38;4471302;31;20191;-89
2023/02/25 04:10:45;;;;;;;19.30;7.65;;;;;;;11.23;59.81;97827.38;4484515;32;20103;-88
2023/02/25 04:13:12;;;;;;;14.57;7.03;;;;;;;11.09;59.80;97837.84;4471501;31;20080;-88
2023/02/25 04:15:37;;;;;;;17.75;7.87;;;;;;;11.14;59.79;97835.81;4484491;32;20183;-87
2023/02/25 04:18:03;;;;;;;16.23;7.93;;;;;;;11.17;59.80;97843.41;4470948;31;20127;-87
2023/02/25 04:20:28;;;;;;;16.37;8.30;;;;;;;11.32;59.81;97849.38;4485592;31;20493;-87
2023/02/25 04:22:54;;;;;;;16.20;8.88;;;;;;;11.23;59.80;97845.63;4471279;32;20092;-87
2023/02/25 04:25:20;;;;;;;16.10;8.05;;;;;;;11.21;59.80;97855.28;4462918;31;20109;-87
2023/02/25 04:27:45;;;;;;;25.88;8.55;;;;;;;11.22;59.81;97849.16;4471317;32;20096;-88
2023/02/25 04:30:12;;;;;;;15.77;8.13;;;;;;;11.21;59.80;97851.84;4485896;31;20142;-89
2023/02/25 04:32:38;;;;;;;18.62;8.10;;;;;;;11.16;59.80;97849.56;4490332;31;20502;-90
2023/02/25 04:35:04;;;;;;;15.15;7.78;;;;;;;11.30;59.81;97857.28;4484110;31;20097;-89
2023/02/25 04:37:30;;;;;;;22.10;7.85;;;;;;;11.27;59.81;97864.47;4465818;31;20191;-90
2023/02/25 04:39:56;;;;;;;19.87;8.27;;;;;;;11.27;59.81;97880.94;4468632;32;20119;-91
2023/02/25 04:42:21;;;;;;;13.77;8.13;;;;;;;11.21;59.80;97885.72;4458525;32;20080;-90
2023/02/25 04:44:52;;;;;;;17.90;8.32;;;;;;;11.18;59.80;97891.13;4458500;32;20132;-91
2023/02/25 04:47:18;;;;;;;21.65;9.15;;;;;;;11.14;59.81;97890.50;4482253;31;20108;-92
2023/02/25 04:49:43;;;;;;;17.37;7.93;;;;;;;11.16;59.80;97896.44;4462106;32;20574;-92
2023/02/25 04:52:11;;;;;;;22.02;9.25;;;;;;;11.21;59.80;97891.75;4467828;31;20159;-92
2023/02/25 04:54:37;;;;;;;20.00;8.27;;;;;;;11.20;59.80;97897.06;4459691;32;20150;-91
2023/02/25 04:57:02;;;;;;;17.02;8.13;;;;;;;11.18;59.80;97896.31;4460225;31;20148;-91
2023/02/25 04:59:28;;;;;;;25.67;8.95;;;;;;;11.10;59.80;97920.22;4483299;32;20135;-90
2023/02/25 05:01:53;;;;;;;26.20;9.55;;;;;;;10.99;59.79;97922.69;4473075;31;20345;-89
2023/02/25 05:04:19;;;;;;;20.48;8.18;;;;;;;10.82;59.78;97934.13;4479617;32;20084;-89
2023/02/25 05:06:44;;;;;;;19.50;7.85;;;;;;;10.79;59.78;97936.09;4469064;31;20132;-91
2023/02/25 05:09:09;;;;;;;17.02;7.78;;;;;;;10.60;59.76;97929.41;4465037;31;20107;-90
2023/02/25 05:11:35;;;;;;;15.32;6.20;;;;;;;10.45;59.76;97935.56;4461938;31;20452;-91
2023/02/25 05:14:00;;;;;;;13.43;5.35;;;;;;;10.43;59.76;97938.25;4478480;31;20166;-90
2023/02/25 05:16:26;;;;;;;10.93;4.87;;;;;;;10.27;59.75;97947.06;4477172;31;20298;-92
2023/02/25 05:18:51;;;;;;;13.57;4.30;;;;;;;10.14;59.74;97946.91;4471466;32;20433;-92
2023/02/25 05:21:19;;;;;;;10.07;4.78;;;;;;;10.20;59.74;97956.97;4468833;31;20472;-90
2023/02/25 05:23:45;;;;;;;10.90;4.45;;;;;;;10.15;59.74;97957.22;4458618;32;20526;-90
2023/02/25 05:26:10;;;;;;;10.95;4.50;;;;;;;10.21;59.75;97963.03;4467992;31;20795;-91
2023/02/25 05:28:36;;;;;;;9.32;4.20;;;;;;;10.16;59.75;97968.44;4457999;32;20112;-89
2023/02/25 05:31:09;;;;;;;10.63;4.50;;;;;;;10.16;59.75;97964.09;4464987;32;20100;-88
2023/02/25 05:33:34;;;;;;;8.93;4.25;;;;;;;10.20;59.75;97969.12;4470957;32;20449;-90
2023/02/25 05:36:00;;;;;;;11.85;4.57;;;;;;;10.11;59.75;97986.09;4481339;31;20146;-89
2023/02/25 05:38:26;;;;;;;8.43;4.43;;;;;;;10.02;59.73;97973.63;4476226;31;20155;-90
2023/02/25 05:40:52;;;;;;;9.77;3.58;;;;;;;9.96;59.74;97972.25;4486329;31;20083;-90
2023/02/25 05:43:18;;;;;;;8.27;4.00;;;;;;;10.08;59.74;97968.06;4461083;32;20100;-90
2023/02/25 05:45:43;;;;;;;8.50;3.42;;;;;;;9.83;59.72;97972.09;4483922;31;20411;-88
2023/02/25 05:48:09;;;;;;;6.80;3.00;;;;;;;9.90;59.73;97975.16;4461311;32;20392;-89
2023/02/25 05:50:40;;;;;;;6.62;2.78;;;;;;;9.81;59.73;97984.34;4457742;31;20100;-90
2023/02/25 05:53:06;;;;;;;6.28;2.40;;;;;;;9.70;59.72;97983.25;4483935;31;20088;-89
2023/02/25 05:55:31;;;;;;;5.37;2.87;;;;;;;9.73;59.72;97986.53;4466803;31;20096;-88
2023/02/25 05:57:56;;;;;;;6.72;2.35;;;;;;;9.70;59.72;97991.91;4483983;32;20168;-89
2023/02/25 06:00:22;;;;;;;5.10;2.45;;;;;;;9.72;59.73;97989.22;4483335;31;20079;-88
2023/02/25 06:02:47;;;;;;;7.50;1.92;;;;;;;9.68;59.72;97998.94;4478252;31;20156;-90
2023/02/25 06:05:13;;;;;;;2.90;1.87;;;;;;;9.47;59.70;98010.53;4471593;31;20392;-89
2023/02/25 06:07:38;;;;;;;5.78;3.00;;;;;;;9.21;59.69;98022.31;4458483;32;20127;-90
2023/02/25 06:10:04;;;;;;;3.58;1.67;;;;;;;9.11;59.69;98034.13;4484073;31;20130;-89
2023/02/25 06:12:31;;;;;;;4.75;1.55;;;;;;;9.01;59.68;98036.41;4478261;31;20080;-89
2023/02/25 06:14:56;;;;;;;2.40;1.48;;;;;;;8.73;59.66;98047.34;4472667;31;20108;-89
2023/02/25 06:17:24;;;;;;;1.50;1.10;;;;;;;8.67;59.67;98045.09;4462838;32;20164;-89
2023/02/25 06:19:51;;;;;;;3.47;1.35;;;;;;;8.48;59.65;98072.84;4471593;31;20145;-88
2023/02/25 06:22:19;;;;;;;1.67;0.90;;;;;;;8.34;59.64;98057.19;4459462;32;20203;-89
2023/02/25 06:24:45;;;;;;;6.12;1.83;;;;;;;8.22;59.63;98058.56;4460555;32;20096;-88
2023/02/25 06:27:10;;;;;;;4.35;1.30;;;;;;;8.38;59.65;98053.50;4492135;32;20172;-89
2023/02/25 06:29:40;;;;;;;1.73;0.65;;;;;;;8.33;59.64;98058.91;4481985;31;20091;-89
2023/02/25 06:32:09;;;;;;;2.67;1.10;;;;;;;8.33;59.65;98048.53;4480840;32;20138;-89
2023/02/25 06:34:37;;;;;;;5.05;1.33;;;;;;;8.24;59.64;98061.94;4481876;31;20100;-90
2023/02/25 06:37:03;;;;;;;2.30;1.48;;;;;;;8.37;59.64;98051.84;4465811;31;20100;-91
2023/02/25 06:39:28;;;;;;;2.60;1.23;;;;;;;8.42;59.65;98065.41;4470981;31;20161;-92
2023/02/25 06:41:54;;;;;;;1.62;1.25;;;;;;;8.34;59.64;98054.59;4471595;32;20088;-92
2023/02/25 06:44:19;;;;;;;2.30;1.58;;;;;;;8.45;59.65;98054.88;4471515;31;20548;-91
2023/02/25 06:46:45;;;;;;;3.60;1.55;;;;;;;8.48;59.65;98063.31;4465604;31;20160;-91
2023/02/25 06:49:11;;;;;;;4.35;2.03;;;;;;;8.47;59.65;98068.59;4460647;31;20123;-89
2023/02/25 06:51:37;;;;;;;2.55;2.00;;;;;;;8.49;59.65;98079.72;4457903;32;20116;-90
2023/02/25 06:54:02;;;;;;;4.53;2.08;;;;;;;8.34;59.65;98073.56;4470000;31;20190;-90
2023/02/25 06:56:29;;;;;;;3.55;2.05;;;;;;;8.32;59.65;98081.37;4462438;32;20420;-90
2023/02/25 06:58:57;;;;;;;4.18;2.47;;;;;;;8.32;59.64;98080.56;4457488;31;20096;-90
2023/02/25 07:01:23;;;;;;;3.05;2.00;;;;;;;8.31;59.65;98089.25;4479504;31;20079;-89
2023/02/25 07:03:49;;;;;;;6.28;2.58;;;;;;;8.45;59.66;98098.94;4485644;32;20173;-89
2023/02/25 07:06:15;;;;;;;6.40;1.73;;;;;;;8.51;59.66;98089.09;4470823;31;20472;-90
2023/02/25 07:08:40;;;;;;;3.95;1.92;;;;;;;8.46;59.65;98096.28;4496300;31;20114;-89
2023/02/25 07:11:23;;;;;;;4.55;1.90;;;;;;;8.34;59.65;98099.50;4462910;32;20115;-90
2023/02/25 07:13:49;;;;;;;3.97;1.80;;;;;;;8.39;59.65;98104.44;4477192;31;20108;-88
2023/02/25 07:16:15;;;;;;;3.10;2.12;;;;;;;8.31;59.65;98108.22;4470254;32;20800;-89
2023/02/25 07:18:41;;;;;;;3.25;1.77;;;;;;;8.40;59.65;98113.91;4462993;31;20095;-88
2023/02/25 07:21:06;;;;;;;4.30;2.87;;;;;;;8.37;59.65;98114.88;4474498;31;20112;-86
2023/02/25 07:23:32;;;;;;;5.65;2.55;;;;;;;8.23;59.64;98114.69;4482817;32;20132;-87
2023/02/25 07:26:02;;;;;;;5.22;2.50;;;;;;;8.20;59.63;98112.25;4466717;31;20134;-87
2023/02/25 07:28:28;;;;;;;3.92;2.80;;;;;;;8.22;59.62;98107.81;4473586;32;20092;-87
2023/02/25 07:30:53;;;;;;;3.80;2.92;;;;;;;8.14;59.64;98100.44;4464917;32;20185;-86
2023/02/25 07:33:18;;;;;;;3.55;2.47;;;;;;;8.22;59.64;98095.69;4484376;32;20148;-86
2023/02/25 07:35:44;;;;;;;2.83;2.25;;;;;;;8.38;59.65;98087.22;4487837;31;20116;-88
2023/02/25 07:38:11;;;;;;;4.32;2.22;;;;;;;8.25;59.64;98092.94;4484675;32;20175;-86
2023/02/25 07:40:40;;;;;;;2.97;2.05;;;;;;;8.31;59.64;98079.72;4485018;32;20151;-86
2023/02/25 07:43:06;;;;;;;3.00;2.00;;;;;;;8.39;59.65;98092.31;4472522;32;20108;-88
2023/02/25 07:45:31;;;;;;;1.23;0.82;;;;;;;8.02;59.63;98111.37;4471956;32;20130;-87
2023/02/25 07:47:57;;;;;;;4.68;2.00;;;;;;;7.51;59.60;98096.53;4479240;31;20100;-87
2023/02/25 07:50:22;;;;;;;2.33;1.15;;;;;;;7.38;59.59;98124.72;4476603;31;20509;-87
2023/02/25 07:52:48;;;;;;;2.83;1.52;;;;;;;7.26;59.58;98107.97;4471807;32;20163;-88
2023/02/25 07:55:14;;;;;;;1.67;0.85;;;;;;;7.39;59.58;98105.69;4484927;32;20112;-87
2023/02/25 07:57:39;;;;;;;1.30;0.70;;;;;;;7.34;59.59;98094.72;4458633;32;20168;-88
2023/02/25 08:00:09;;;;;;;1.45;0.85;;;;;;;7.22;59.58;98114.22;4485959;31;20118;-87
2023/02/25 08:02:35;;;;;;;2.92;0.80;;;;;;;7.30;59.58;98129.38;4484674;32;20460;-87
2023/02/25 08:05:01;;;;;;;1.05;0.75;;;;;;;7.42;59.59;98115.91;4471835;31;20171;-88
2023/02/25 08:07:28;;;;;;;2.60;1.10;;;;;;;7.50;59.60;98120.72;4484675;31;20426;-88
2023/02/25 08:09:53;;;;;;;2.80;1.55;;;;;;;7.49;59.60;98122.47;4484846;32;20846;-89
2023/02/25 08:12:19;;;;;;;1.95;1.45;;;;;;;7.40;59.59;98120.31;4464501;31;20108;-87
2023/02/25 08:14:45;;;;;;;4.32;1.80;;;;;;;7.60;59.60;98120.25;4489128;31;20168;-87
2023/02/25 08:17:11;;;;;;;2.30;1.55;;;;;;;7.64;59.60;98137.31;4472079;32;20084;-88
2023/02/25 08:19:37;;;;;;;4.30;2.30;;;;;;;7.34;59.59;98136.97;4488822;31;20136;-88
2023/02/25 08:22:03;;;;;;;3.12;1.92;;;;;;;7.41;59.59;98129.75;4478212;31;20118;-88
2023/02/25 08:24:29;;;;;;;3.70;2.20;;;;;;;7.46;59.59;98137.31;4475530;31;20108;-88
2023/02/25 08:26:54;;;;;;;2.58;2.10;;;;;;;7.50;59.60;98126.75;4484595;32;20081;-89
2023/02/25 08:29:20;;;;;;;2.40;1.80;;;;;;;7.51;59.60;98136.19;4480898;31;20096;-88
2023/02/25 08:31:45;;;;;;;5.30;2.45;;;;;;;7.60;59.60;98135.78;4482731;32;20108;-88
2023/02/25 08:34:12;;;;;;;3.45;2.25;;;;;;;7.82;59.62;98143.41;4471676;32;20131;-88
2023/02/25 08:36:37;;;;;;;3.28;2.30;;;;;;;7.74;59.61;98167.97;4484728;31;20076;-87
2023/02/25 08:39:03;;;;;;;3.03;2.40;;;;;;;7.72;59.61;98168.03;4483765;32;20485;-88
2023/02/25 08:41:28;;;;;;;3.58;2.37;;;;;;;7.85;59.62;98155.38;4484246;31;20104;-88
2023/02/25 08:43:56;;;;;;;2.40;1.73;;;;;;;7.81;59.61;98162.47;4481688;31;20112;-87
2023/02/25 08:46:22;;;;;;;3.83;1.95;;;;;;;7.77;59.61;98160.91;4471761;32;20469;-87
2023/02/25 08:48:49;;;;;;;2.72;1.50;;;;;;;7.78;59.61;98157.41;4466158;32;20681;-89
2023/02/25 08:51:14;;;;;;;2.00;1.37;;;;;;;7.88;59.62;98150.91;4471657;32;20495;-87
2023/02/25 08:53:40;;;;;;;1.70;1.37;;;;;;;7.65;59.61;98159.72;4471425;32;20104;-88
2023/02/25 08:56:09;;;;;;;1.58;0.75;;;;;;;7.67;59.60;98164.84;4471265;32;20562;-88
2023/02/25 08:58:35;;;;;;;1.77;1.48;;;;;;;7.77;59.61;98168.66;4485946;31;20084;-88
2023/02/25 09:01:00;;;;;;;2.40;1.30;;;;;;;7.91;59.61;98170.63;4471494;32;20148;-88
2023/02/25 09:03:26;;;;;;;2.17;1.33;;;;;;;7.99;59.63;98182.31;4470754;31;20100;-87
2023/02/25 09:05:52;;;;;;;1.00;0.90;;;;;;;7.98;59.62;98162.50;4485219;32;20114;-88
2023/02/25 09:08:18;;;;;;;2.40;1.10;;;;;;;8.01;59.63;98162.34;4472169;31;20111;-88
2023/02/25 09:10:43;;;;;;;1.77;0.95;;;;;;;7.93;59.62;98148.09;4475345;32;20096;-89
2023/02/25 09:13:09;;;;;;;4.32;1.92;;;;;;;7.91;59.61;98142.97;4460006;31;20120;-88
2023/02/25 09:15:34;;;;;;;3.97;2.25;;;;;;;8.04;59.62;98169.13;4477272;31;20135;-87
2023/02/25 09:18:00;;;;;;;2.08;0.90;;;;;;;8.02;59.62;98182.16;4488321;31;20156;-89
2023/02/25 09:20:25;;;;;;;1.83;1.00;;;;;;;8.18;59.64;98181.47;4484239;32;20174;-88
2023/02/25 09:22:53;;;;;;;2.80;1.30;;;;;;;8.38;59.65;98190.91;4485616;31;20179;-89
2023/02/25 09:25:19;;;;;;;1.40;0.82;;;;;;;8.39;59.65;98190.84;4471343;32;20153;-89
2023/02/25 09:27:44;;;;;;;1.75;0.70;;;;;;;8.27;59.64;98225.06;4483994;32;20120;-88
2023/02/25 09:30:10;;;;;;;1.80;0.88;;;;;;;8.34;59.64;98213.56;4470995;32;20150;-88
2023/02/25 09:32:35;;;;;;;2.12;1.40;;;;;;;8.37;59.64;98189.22;4484006;32;20091;-89
2023/02/25 09:35:01;;;;;;;1.27;0.88;;;;;;;8.17;59.63;98185.81;4483600;31;20136;-88
2023/02/25 09:37:26;;;;;;;1.52;0.90;;;;;;;8.33;59.64;98185.94;4480697;31;20100;-88
2023/02/25 09:39:52;;;;;;;1.95;1.40;;;;;;;8.23;59.64;98172.53;4486049;31;20095;-88
2023/02/25 09:42:19;;;;;;;2.30;1.42;;;;;;;8.26;59.64;98150.81;4489721;31;20123;-88
2023/02/25 09:44:47;;;;;;;3.40;1.50;;;;;;;8.40;59.65;98151.03;4459484;32;226109;-88
2023/02/25 09:47:41;;;;;;;2.90;1.42;;;;;;;8.48;59.65;98171.41;4452661;31;20092;-88
2023/02/25 09:50:34;;;;;;;4.05;1.40;;;;;;;8.73;59.66;98182.25;4483688;32;20127;-88
2023/02/25 09:53:14;;;;;;;1.60;1.12;;;;;;;8.67;59.66;98195.53;4472290;32;20125;-87
2023/02/25 09:55:40;;;;;;;1.98;1.42;;;;;;;8.77;59.67;98188.16;4483537;31;20121;-87
2023/02/25 09:58:26;;;;;;;2.15;1.27;;;;;;;8.99;59.68;98178.38;4483700;32;20100;-86
2023/02/25 10:01:10;;;;;;;1.58;1.10;;;;;;;9.25;59.69;98169.25;4479915;31;20096;-87
2023/02/25 10:04:17;;;;;;;1.87;1.17;;;;;;;9.41;59.70;98185.69;4485017;31;20486;-88
2023/02/25 10:06:45;;;;;;;1.58;1.20;;;;;;;9.15;59.69;98189.63;4476257;31;20160;-88
2023/02/25 10:09:14;;;;;;;1.87;1.35;;;;;;;9.34;59.71;98173.94;4484037;32;20187;-87
2023/02/25 10:11:54;;;;;;;3.08;1.48;;;;;;;9.64;59.71;98175.84;4484650;31;20172;-88
2023/02/25 10:14:38;;;;;;;1.80;1.12;;;;;;;9.67;59.72;98173.91;4483542;32;20144;-88
2023/02/25 10:17:07;;;;;;;1.75;1.20;;;;;;;9.79;59.73;98178.47;4483723;31;20140;-88
2023/02/25 10:19:51;;;;;;;1.80;0.73;;;;;;;9.85;59.72;98187.69;4484537;31;20443;-86
2023/02/25 10:22:35;;;;;;;0.37;0.37;;;;;;;10.01;59.73;98196.34;4484257;31;20173;-88
2023/02/25 10:25:11;;;;;;;3.30;1.10;;;;;;;10.07;59.74;98202.97;4482552;32;20168;-88
2023/02/25 10:27:40;;;;;;;1.20;0.98;;;;;;;9.99;59.74;98194.75;4482598;32;20231;-89
2023/02/25 10:30:10;;;;;;;0.68;0.52;;;;;;;9.99;59.73;98177.41;4469151;32;20100;-88
2023/02/25 10:32:35;;;;;;;1.48;0.77;;;;;;;9.98;59.73;98170.53;4470631;32;20104;-89
2023/02/25 10:35:10;;;;;;;0.80;0.50;;;;;;;10.25;59.75;98178.59;4471151;32;20209;-89
2023/02/25 10:37:38;;;;;;;0.70;0.68;;;;;;;10.15;59.74;98186.00;4469629;32;20529;-89
2023/02/25 10:40:10;;;;;;;0.73;0.60;;;;;;;9.86;59.72;98186.78;4457243;32;20606;-89
2023/02/25 10:42:35;;;;;;;1.77;0.70;;;;;;;9.61;59.71;98171.66;4469752;31;20134;-89
2023/02/25 10:45:07;;;;;;;0.85;0.70;;;;;;;9.41;59.70;98177.06;4460765;32;20143;-87
2023/02/25 10:47:36;;;;;;;1.10;0.52;;;;;;;9.59;59.72;98177.84;4482547;31;20089;-88
2023/02/25 10:50:26;;;;;;;1.02;0.50;;;;;;;10.00;59.73;98175.62;4469604;32;20161;-88
2023/02/25 10:52:56;;;;;;;2.25;0.40;;;;;;;10.00;59.73;98179.06;4482461;32;20124;-87
2023/02/25 10:55:53;;;;;;;0.70;0.30;;;;;;;10.12;59.75;98191.38;4484238;31;20153;-88
2023/02/25 10:58:35;;;;;;;2.45;0.47;;;;;;;10.07;59.74;98192.56;4487161;31;20110;-88
2023/02/25 11:01:05;;;;;;;0.57;0.40;;;;;;;10.37;59.75;98197.88;4481622;32;20107;-88
2023/02/25 11:03:32;;;;;;;;;;;;;;;10.30;59.75;98197.38;4482408;31;20514;-87
2023/02/25 11:06:27;;;;;;;1.37;0.55;;;;;;;10.27;59.75;98197.53;4482284;32;19979;-88
2023/02/25 11:08:55;;;;;;;0.68;0.50;;;;;;;10.60;59.76;98184.41;4457734;31;20110;-86
2023/02/25 11:11:24;;;;;;;0.82;0.70;;;;;;;10.71;59.77;98171.63;4487365;31;20092;-87
2023/02/25 11:14:02;;;;;;;0.88;0.77;;;;;;;10.90;59.78;98176.59;4481672;31;20439;-88
2023/02/25 11:16:28;;;;;;;0.98;0.73;;;;;;;10.80;59.78;98177.22;4483360;31;20083;-87
2023/02/25 11:19:17;;;;;;;0.93;0.82;;;;;;;10.97;59.78;98164.06;4460611;31;20164;-89
2023/02/25 11:21:42;;;;;;;1.65;0.70;;;;;;;11.33;59.80;98137.56;4458204;32;20096;-86
2023/02/25 11:24:16;;;;;;;0.60;0.55;;;;;;;11.14;59.81;98127.44;4483091;31;20395;-87
2023/02/25 11:26:46;;;;;;;0.50;0.43;;;;;;;10.88;59.78;98125.53;4458776;31;20173;-87
2023/02/25 11:29:11;;;;;;;;;;;;;;;10.72;59.77;98110.84;4469217;32;20096;-87
2023/02/25 11:31:39;;;;;;;0.80;0.57;;;;;;;10.73;59.77;98115.12;4482744;31;21115;-88
2023/02/25 11:34:29;;;;;;;1.70;0.52;;;;;;;10.77;59.78;98103.59;4468853;32;20135;-87
2023/02/25 11:36:56;;;;;;;1.42;0.80;;;;;;;10.76;59.79;98125.34;4468521;32;20122;-87
2023/02/25 11:39:26;;;;;;;2.45;1.20;;;;;;;10.92;59.79;98120.09;4482623;31;20848;-88
2023/02/25 11:41:55;;;;;;;;;;;;;;;11.11;59.80;98145.00;4469822;32;20106;-86
2023/02/25 11:44:40;;;;;;;1.33;0.62;;;;;;;11.28;59.80;98132.66;4482685;31;20332;-87